Time;durP1;ratioP1;P1;durP2;ratioP2;P2;SDS_P1;SDS_P2;PMS_P1;PMS_P2;Temp;Humidity;BMP_temperature;BMP_pressure;BME280_temperature;BME280_humidity;BME280_pressure;Samples;Min_cycle;Max_cycle;Signal;HPM_P1;HPM_P2
2022/06/15 00:01:27;;;;;;;5.95;4.47;;;12.20;99.90;;;;;;4979589;28;90114;-35
2022/06/15 00:03:53;;;;;;;5.72;4.90;;;12.20;99.90;;;;;;4978705;28;89737;-38
2022/06/15 00:06:23;;;;;;;7.25;4.72;;;12.10;99.90;;;;;;4980145;28;89361;-38
2022/06/15 00:08:53;;;;;;;5.13;4.60;;;12.10;99.90;;;;;;4978835;28;90360;-41
2022/06/15 00:11:23;;;;;;;8.10;5.10;;;12.00;99.90;;;;;;4978278;28;90622;-40
2022/06/15 00:13:51;;;;;;;6.40;5.50;;;12.00;99.90;;;;;;4978862;28;90956;-39
2022/06/15 00:16:17;;;;;;;8.07;5.65;;;11.90;99.90;;;;;;4980066;28;89045;-34
2022/06/15 00:18:45;;;;;;;4.95;4.45;;;11.80;99.90;;;;;;4979338;28;90410;-38
2022/06/15 00:21:13;;;;;;;8.13;6.07;;;11.80;99.90;;;;;;4978994;28;87977;-35
2022/06/15 00:23:39;;;;;;;6.07;4.90;;;11.70;99.90;;;;;;4978467;28;89616;-36
2022/06/15 00:26:05;;;;;;;7.95;5.28;;;11.70;99.90;;;;;;4979331;28;89935;-35
2022/06/15 00:28:32;;;;;;;9.98;5.63;;;11.70;99.90;;;;;;4979221;28;91556;-35
2022/06/15 00:30:58;;;;;;;4.13;3.83;;;11.60;99.90;;;;;;4978751;28;90005;-36
2022/06/15 00:33:25;;;;;;;7.15;5.65;;;11.60;99.90;;;;;;4979427;28;89692;-37
2022/06/15 00:35:57;;;;;;;8.32;5.53;;;11.50;99.90;;;;;;4978560;28;88938;-36
2022/06/15 00:38:29;;;;;;;10.30;6.35;;;11.50;99.90;;;;;;4978927;28;90347;-37
2022/06/15 00:40:56;;;;;;;8.23;6.07;;;11.50;99.90;;;;;;4978757;28;90015;-36
2022/06/15 00:43:39;;;;;;;7.82;6.25;;;11.50;99.90;;;;;;4977001;28;90285;-37
2022/06/15 00:46:15;;;;;;;6.32;5.82;;;11.50;99.90;;;;;;4971777;28;89876;-41
2022/06/15 00:48:43;;;;;;;7.30;6.25;;;11.40;99.90;;;;;;4978749;28;90609;-38
2022/06/15 00:51:08;;;;;;;5.78;5.28;;;11.30;99.90;;;;;;4978885;28;90436;-34
2022/06/15 00:53:34;;;;;;;7.60;6.63;;;11.30;99.90;;;;;;4978617;28;89878;-35
2022/06/15 00:56:00;;;;;;;7.18;6.07;;;11.40;99.90;;;;;;4979413;28;89841;-35
2022/06/15 00:58:26;;;;;;;12.63;6.75;;;11.40;99.90;;;;;;4978289;28;90660;-37
2022/06/15 01:00:54;;;;;;;7.95;5.93;;;11.40;99.90;;;;;;5015435;22;90523;-38
2022/06/15 01:03:20;;;;;;;11.47;5.27;;;11.40;99.90;;;;;;4976544;28;89888;-35
2022/06/15 01:05:59;;;;;;;8.18;5.25;;;11.40;99.90;;;;;;4978484;28;89999;-36
2022/06/15 01:08:50;;;;;;;7.95;5.20;;;11.40;99.90;;;;;;4980268;28;90713;-36
2022/06/15 01:11:30;;;;;;;6.80;6.18;;;11.40;99.90;;;;;;4973488;28;90666;-35
2022/06/15 01:14:06;;;;;;;9.75;7.03;;;11.40;99.90;;;;;;4982278;28;89633;-34
2022/06/15 01:16:49;;;;;;;9.70;6.05;;;11.40;99.90;;;;;;4982526;28;89075;-35
2022/06/15 01:19:27;;;;;;;6.25;5.65;;;11.40;99.90;;;;;;4970995;28;90540;-39
2022/06/15 01:22:29;;;;;;;8.83;7.07;;;11.40;99.90;;;;;;4982519;28;89705;-34
2022/06/15 01:24:55;;;;;;;6.00;5.50;;;11.30;99.90;;;;;;4981335;28;89461;-35
2022/06/15 01:27:57;;;;;;;7.38;5.50;;;11.30;99.90;;;;;;4981929;28;90630;-36
2022/06/15 01:30:40;;;;;;;9.15;6.45;;;11.20;99.90;;;;;;4982089;28;90329;-35
2022/06/15 01:33:41;;;;;;;12.98;7.60;;;11.20;99.90;;;;;;4982630;28;90156;-36
2022/06/15 01:36:18;;;;;;;7.35;6.35;;;11.20;99.90;;;;;;4968538;28;89419;-35
2022/06/15 01:39:00;;;;;;;7.63;6.13;;;11.10;99.90;;;;;;4981535;28;88457;-36
2022/06/15 01:41:34;;;;;;;8.35;7.38;;;11.20;99.90;;;;;;4963575;28;90299;-37
2022/06/15 01:44:06;;;;;;;11.38;7.70;;;11.10;99.90;;;;;;4982128;28;89859;-35
2022/06/15 01:46:32;;;;;;;15.32;8.18;;;11.10;99.90;;;;;;4981264;28;89620;-37
2022/06/15 01:48:59;;;;;;;9.02;7.75;;;11.10;99.90;;;;;;4981292;28;88302;-36
2022/06/15 01:51:33;;;;;;;9.40;7.97;;;11.10;99.90;;;;;;4974992;28;90481;-36
2022/06/15 01:54:06;;;;;;;8.73;7.13;;;11.10;99.90;;;;;;4974328;28;91791;-36
2022/06/15 01:56:39;;;;;;;9.32;8.18;;;11.10;99.90;;;;;;4980702;28;89788;-38
2022/06/15 01:59:19;;;;;;;9.15;7.57;;;11.00;99.90;;;;;;4981448;28;88445;-36
2022/06/15 02:01:58;;;;;;;12.50;8.07;;;11.00;99.90;;;;;;4981119;28;90556;-38
2022/06/15 02:04:37;;;;;;;10.65;7.85;;;11.00;99.90;;;;;;4981514;28;89726;-33
2022/06/15 02:07:32;;;;;;;8.98;8.02;;;10.90;99.90;;;;;;4981194;28;88352;-36
2022/06/15 02:10:11;;;;;;;11.23;7.97;;;10.90;99.90;;;;;;4951749;28;89780;-37
2022/06/15 02:12:44;;;;;;;9.10;8.27;;;10.90;99.90;;;;;;4980784;28;90136;-36
2022/06/15 02:15:13;;;;;;;9.63;7.90;;;10.80;99.90;;;;;;4981009;28;90855;-34
2022/06/15 02:17:43;;;;;;;16.13;7.43;;;10.80;99.90;;;;;;4981541;28;89579;-35
2022/06/15 02:20:18;;;;;;;9.45;8.52;;;10.80;99.90;;;;;;4980131;28;89121;-37
2022/06/15 02:22:46;;;;;;;13.57;8.48;;;10.80;99.90;;;;;;4980794;28;90126;-35
2022/06/15 02:25:16;;;;;;;10.05;8.52;;;10.80;99.90;;;;;;4980874;28;89692;-37
2022/06/15 02:27:43;;;;;;;18.52;8.50;;;10.80;99.90;;;;;;4980580;28;89771;-37
2022/06/15 02:30:14;;;;;;;9.75;8.38;;;10.80;99.90;;;;;;4981299;28;88163;-36
2022/06/15 02:32:46;;;;;;;10.30;8.88;;;10.80;99.90;;;;;;4980471;28;90106;-37
2022/06/15 02:35:13;;;;;;;15.05;8.75;;;10.80;99.90;;;;;;4962309;28;89822;-38
2022/06/15 02:37:39;;;;;;;14.23;8.40;;;10.80;99.90;;;;;;4980386;28;89252;-36
2022/06/15 02:40:05;;;;;;;12.75;9.13;;;10.80;99.90;;;;;;4981974;28;88731;-34
2022/06/15 02:42:34;;;;;;;10.10;9.07;;;10.80;99.90;;;;;;4979922;28;90135;-35
2022/06/15 02:45:05;;;;;;;9.93;8.63;;;10.80;99.90;;;;;;4980224;28;91103;-34
2022/06/15 02:47:33;;;;;;;13.45;9.88;;;10.80;99.90;;;;;;4979920;28;91824;-34
2022/06/15 02:50:00;;;;;;;11.73;9.23;;;10.80;99.90;;;;;;4980226;28;88949;-34
2022/06/15 02:52:31;;;;;;;12.60;9.13;;;10.80;99.90;;;;;;4966011;28;90239;-36
2022/06/15 02:54:58;;;;;;;12.38;9.57;;;10.80;99.90;;;;;;4980331;28;91884;-35
2022/06/15 02:57:24;;;;;;;10.73;8.93;;;10.80;99.90;;;;;;4980934;28;89453;-37
2022/06/15 02:59:50;;;;;;;10.18;9.13;;;10.80;99.90;;;;;;4979736;28;89249;-36
2022/06/15 03:02:17;;;;;;;11.80;9.65;;;10.80;99.90;;;;;;4980666;28;90261;-37
2022/06/15 03:04:44;;;;;;;9.27;8.07;;;10.80;99.90;;;;;;4980852;28;89815;-34
2022/06/15 03:07:11;;;;;;;11.90;10.10;;;10.80;99.90;;;;;;4979726;28;89422;-39
2022/06/15 03:09:38;;;;;;;11.60;9.55;;;10.80;99.90;;;;;;4979048;28;90048;-36
2022/06/15 03:12:04;;;;;;;16.13;10.02;;;10.80;99.90;;;;;;4979949;28;90352;-35
2022/06/15 03:14:30;;;;;;;13.02;9.65;;;10.80;99.90;;;;;;4979479;28;91422;-37
2022/06/15 03:16:57;;;;;;;16.80;10.35;;;10.70;99.90;;;;;;4979951;28;89731;-35
2022/06/15 03:19:23;;;;;;;11.85;10.52;;;10.70;99.90;;;;;;4980242;28;89373;-37
2022/06/15 03:21:48;;;;;;;14.57;10.73;;;10.70;99.90;;;;;;4979080;28;90006;-37
2022/06/15 03:24:14;;;;;;;11.27;10.00;;;10.70;99.90;;;;;;4961378;28;89931;-38
2022/06/15 03:26:40;;;;;;;17.50;10.55;;;10.70;99.90;;;;;;4978938;28;91004;-34
2022/06/15 03:29:06;;;;;;;14.50;9.15;;;10.70;99.90;;;;;;4979355;28;88946;-37
2022/06/15 03:31:32;;;;;;;15.15;9.63;;;10.70;99.90;;;;;;4980069;28;90325;-34
2022/06/15 03:33:57;;;;;;;11.73;9.68;;;10.70;99.90;;;;;;4979125;28;89297;-36
2022/06/15 03:36:23;;;;;;;11.73;9.60;;;10.70;99.90;;;;;;4979775;28;90535;-39
2022/06/15 03:38:49;;;;;;;13.02;9.30;;;10.80;99.90;;;;;;4979312;28;89083;-35
2022/06/15 03:41:16;;;;;;;12.82;9.48;;;10.80;99.90;;;;;;4979587;28;90132;-38
2022/06/15 03:43:41;;;;;;;12.27;9.38;;;10.70;99.90;;;;;;4980132;28;88671;-37
2022/06/15 03:46:07;;;;;;;12.52;9.20;;;10.70;99.90;;;;;;4979504;28;90196;-34
2022/06/15 03:48:32;;;;;;;12.27;10.38;;;10.80;99.90;;;;;;4979986;28;89863;-40
2022/06/15 03:50:58;;;;;;;11.27;10.05;;;10.80;99.90;;;;;;4976535;28;91465;-36
2022/06/15 03:53:24;;;;;;;14.68;10.38;;;10.80;99.90;;;;;;4966974;28;88671;-40
2022/06/15 03:55:49;;;;;;;10.85;8.90;;;10.90;99.90;;;;;;4979176;28;90207;-36
2022/06/15 03:58:18;;;;;;;12.00;9.90;;;11.00;99.90;;;;;;4978844;28;90324;-33
2022/06/15 04:00:44;;;;;;;18.13;9.93;;;11.00;99.90;;;;;;4978617;28;90088;-35
2022/06/15 04:03:10;;;;;;;12.20;9.52;;;11.00;99.90;;;;;;4979830;28;89053;-35
2022/06/15 04:05:49;;;;;;;9.88;8.93;;;11.00;99.90;;;;;;4979238;28;88209;-34
2022/06/15 04:11:07;;;;;;;10.23;9.32;;;11.10;99.90;;;;;;4978951;28;90387;-36
2022/06/15 04:13:34;;;;;;;12.52;10.02;;;11.10;99.90;;;;;;4978695;28;90200;-37
2022/06/15 04:16:02;;;;;;;11.93;9.38;;;11.10;99.90;;;;;;4978790;28;89470;-35
2022/06/15 04:18:28;;;;;;;11.50;10.07;;;11.20;99.90;;;;;;4978811;28;88494;-37
2022/06/15 04:20:54;;;;;;;12.65;10.02;;;11.30;99.90;;;;;;4978388;28;88982;-36
2022/06/15 04:23:21;;;;;;;18.40;9.88;;;11.30;99.90;;;;;;4978077;28;90608;-36
2022/06/15 04:25:53;;;;;;;11.55;9.98;;;11.40;99.90;;;;;;4979062;28;90620;-36
2022/06/15 04:28:21;;;;;;;14.50;10.75;;;11.50;99.90;;;;;;4978168;28;89110;-37
2022/06/15 04:30:47;;;;;;;11.98;10.73;;;11.60;99.90;;;;;;4978586;28;89965;-35
2022/06/15 04:33:14;;;;;;;13.50;10.30;;;11.80;99.90;;;;;;4978698;28;89850;-34
2022/06/15 04:35:40;;;;;;;11.35;10.15;;;11.90;99.90;;;;;;4977769;28;89586;-36
2022/06/15 04:38:06;;;;;;;11.40;10.18;;;12.20;99.90;;;;;;4977990;28;89552;-41
2022/06/15 04:40:33;;;;;;;13.60;10.18;;;12.40;99.90;;;;;;4978951;28;91711;-36
2022/06/15 04:42:59;;;;;;;18.52;12.02;;;12.60;99.90;;;;;;4978677;28;89670;-38
2022/06/15 04:45:25;;;;;;;16.13;11.10;;;12.80;99.90;;;;;;4982600;28;89481;-36
2022/06/15 04:47:50;;;;;;;21.20;11.68;;;13.00;99.90;;;;;;4981653;28;88894;-35
2022/06/15 04:50:17;;;;;;;18.00;11.60;;;13.20;99.90;;;;;;4981491;28;90017;-35
2022/06/15 04:52:44;;;;;;;11.93;9.73;;;13.40;99.90;;;;;;4967620;28;90332;-35
2022/06/15 04:55:13;;;;;;;12.52;10.10;;;13.50;99.90;;;;;;4982095;28;91390;-36
2022/06/15 04:57:38;;;;;;;11.80;10.13;;;13.70;99.90;;;;;;4981808;28;90501;-35
2022/06/15 05:00:09;;;;;;;13.85;10.20;;;13.80;99.90;;;;;;4982008;28;89866;-36
2022/06/15 05:02:34;;;;;;;13.93;10.27;;;13.90;99.90;;;;;;4982095;28;90843;-38
2022/06/15 05:05:01;;;;;;;17.13;10.02;;;14.00;99.90;;;;;;4982410;28;89973;-35
2022/06/15 05:07:26;;;;;;;14.27;10.32;;;14.10;99.90;;;;;;4981319;28;89865;-35
2022/06/15 05:09:52;;;;;;;12.88;10.25;;;14.00;99.90;;;;;;4981778;28;89564;-34
2022/06/15 05:12:18;;;;;;;10.38;9.07;;;14.00;99.90;;;;;;4980623;28;90373;-35
2022/06/15 05:14:47;;;;;;;13.70;9.35;;;14.00;99.90;;;;;;4982167;28;89573;-38
2022/06/15 05:17:15;;;;;;;9.63;8.63;;;14.00;99.90;;;;;;4982287;28;89914;-35
2022/06/15 05:19:40;;;;;;;13.07;10.10;;;14.30;99.90;;;;;;4982241;28;89307;-37
2022/06/15 05:22:06;;;;;;;13.43;9.25;;;14.50;99.90;;;;;;4980831;28;89724;-39
2022/06/15 05:24:32;;;;;;;17.20;10.25;;;14.60;99.90;;;;;;4982401;28;89912;-34
2022/06/15 05:26:58;;;;;;;14.32;10.10;;;14.70;99.90;;;;;;4995337;28;89819;-35
2022/06/15 05:29:24;;;;;;;11.82;9.75;;;14.90;99.90;;;;;;4981356;28;90274;-39
2022/06/15 05:31:51;;;;;;;15.20;10.98;;;15.10;99.90;;;;;;4981576;28;90337;-35
2022/06/15 05:34:16;;;;;;;13.48;9.70;;;15.30;99.90;;;;;;4981132;28;89840;-37
2022/06/15 05:36:42;;;;;;;12.05;9.68;;;15.40;99.90;;;;;;4980778;28;90202;-37
2022/06/15 05:39:09;;;;;;;13.80;9.35;;;15.50;99.90;;;;;;4981476;28;90662;-34
2022/06/15 05:41:35;;;;;;;10.98;8.70;;;15.60;99.90;;;;;;4981425;28;89682;-36
2022/06/15 05:46:42;;;;;;;10.07;8.90;;;15.80;99.90;;;;;;4982150;28;91038;-36
2022/06/15 05:49:10;;;;;;;10.35;8.02;;;16.00;99.90;;;;;;4981565;28;89278;-35
2022/06/15 05:51:36;;;;;;;9.80;8.77;;;16.20;99.90;;;;;;4980657;28;91375;-36
2022/06/15 05:54:02;;;;;;;8.85;7.82;;;16.30;99.90;;;;;;4981042;28;89791;-37
2022/06/15 05:56:27;;;;;;;7.95;7.00;;;16.40;99.90;;;;;;4981730;28;87740;-35
2022/06/15 05:58:53;;;;;;;11.88;7.65;;;16.40;99.90;;;;;;4981237;28;90142;-36
2022/06/15 06:01:28;;;;;;;7.65;6.82;;;16.50;99.90;;;;;;4980664;28;91419;-35
2022/06/15 06:03:54;;;;;;;9.35;8.32;;;16.50;99.90;;;;;;4981060;28;91492;-35
2022/06/15 06:06:20;;;;;;;11.80;7.40;;;16.70;99.90;;;;;;4980565;28;89025;-37
2022/06/15 06:08:46;;;;;;;7.18;6.55;;;16.60;99.90;;;;;;4981076;28;89397;-35
2022/06/15 06:11:12;;;;;;;9.10;7.43;;;16.80;99.90;;;;;;4981081;28;89596;-36
2022/06/15 06:13:38;;;;;;;9.48;7.00;;;16.90;99.90;;;;;;4980763;28;89025;-35
2022/06/15 06:16:05;;;;;;;9.23;7.72;;;17.10;99.90;;;;;;4981194;28;89168;-35
2022/06/15 06:18:30;;;;;;;7.30;6.60;;;17.20;99.90;;;;;;4980807;28;91027;-36
2022/06/15 06:20:56;;;;;;;7.72;6.53;;;17.50;99.90;;;;;;4981963;28;89765;-38
2022/06/15 06:23:21;;;;;;;10.30;6.68;;;17.60;99.90;;;;;;4978714;28;89362;-38
2022/06/15 06:25:50;;;;;;;9.10;5.53;;;17.80;99.90;;;;;;4980211;28;90508;-38
2022/06/15 06:28:35;;;;;;;13.88;7.72;;;17.90;99.90;;;;;;4980949;28;89858;-35
2022/06/15 06:31:03;;;;;;;8.88;5.88;;;18.10;99.90;;;;;;4981260;28;89893;-38
2022/06/15 06:33:29;;;;;;;;;;;18.30;99.90;;;;;;4981016;28;89542;-37
2022/06/15 06:35:57;;;;;;;8.60;6.15;;;18.30;99.90;;;;;;4980670;28;88793;-41
2022/06/15 06:38:24;;;;;;;10.68;5.63;;;18.10;99.90;;;;;;4963744;28;90597;-37
2022/06/15 06:40:54;;;;;;;11.60;5.95;;;18.10;99.90;;;;;;4958391;28;91369;-35
2022/06/15 06:43:21;;;;;;;9.43;5.03;;;18.40;99.90;;;;;;4959482;28;89430;-36
2022/06/15 06:45:47;;;;;;;13.45;5.90;;;18.50;99.90;;;;;;4958845;28;89269;-35
2022/06/15 06:48:12;;;;;;;8.07;4.82;;;18.90;99.90;;;;;;4958415;28;90035;-37
2022/06/15 06:50:40;;;;;;;13.75;5.05;;;19.10;99.90;;;;;;4956966;28;90508;-37
2022/06/15 06:53:10;;;;;;;10.40;5.20;;;19.10;99.90;;;;;;4963504;28;90424;-35
2022/06/15 06:55:36;;;;;;;11.90;5.20;;;19.20;99.90;;;;;;4977927;28;89190;-34
2022/06/15 06:58:02;;;;;;;9.18;4.78;;;19.40;99.90;;;;;;4978697;28;90372;-37
2022/06/15 07:00:30;;;;;;;4.75;4.00;;;19.60;99.90;;;;;;4977472;28;89718;-37
2022/06/15 07:02:58;;;;;;;6.18;4.28;;;19.90;99.90;;;;;;4978127;28;89614;-37
2022/06/15 07:05:23;;;;;;;5.15;4.60;;;19.90;99.90;;;;;;4977735;28;89212;-37
2022/06/15 07:07:49;;;;;;;6.13;5.07;;;20.00;99.90;;;;;;4978528;28;90763;-38
2022/06/15 07:10:15;;;;;;;6.15;4.50;;;20.40;99.90;;;;;;4978093;28;89638;-38
2022/06/15 07:12:42;;;;;;;9.93;5.10;;;20.30;99.90;;;;;;4978413;28;89998;-38
2022/06/15 07:15:13;;;;;;;4.57;4.17;;;20.30;99.90;;;;;;4977985;28;89867;-36
2022/06/15 07:17:40;;;;;;;7.90;5.35;;;20.30;99.90;;;;;;4978356;28;90611;-36
2022/06/15 07:20:07;;;;;;;6.93;5.03;;;20.20;99.90;;;;;;4978195;28;89128;-37
2022/06/15 07:22:34;;;;;;;9.68;5.80;;;20.20;99.90;;;;;;4977373;28;90914;-35
2022/06/15 07:24:59;;;;;;;7.15;5.55;;;20.10;99.90;;;;;;4978499;28;88655;-36
2022/06/15 07:27:25;;;;;;;6.68;4.05;;;20.40;99.90;;;;;;4977394;28;91170;-37
2022/06/15 07:29:52;;;;;;;5.25;4.72;;;20.40;99.90;;;;;;4977574;28;90362;-37
2022/06/15 07:32:18;;;;;;;9.27;4.78;;;20.60;99.90;;;;;;4993888;28;90074;-35
2022/06/15 07:34:44;;;;;;;7.35;4.45;;;21.00;99.90;;;;;;4977200;28;88404;-36
2022/06/15 07:37:10;;;;;;;6.82;5.50;;;21.10;99.90;;;;;;4977140;28;90617;-39
2022/06/15 07:39:37;;;;;;;10.00;4.47;;;21.10;99.90;;;;;;4963926;28;90453;-36
2022/06/15 07:42:04;;;;;;;6.00;4.05;;;21.40;99.90;;;;;;4970646;28;90528;-35
2022/06/15 07:44:30;;;;;;;5.05;3.60;;;21.40;99.90;;;;;;4967997;28;89006;-39
2022/06/15 07:49:57;;;;;;;11.57;3.95;;;21.50;97.00;;;;;;4967026;28;90034;-37
2022/06/15 07:52:38;;;;;;;4.45;3.78;;;21.40;97.10;;;;;;4957491;28;90760;-36
2022/06/15 07:55:05;;;;;;;3.10;2.55;;;21.50;99.90;;;;;;4966258;28;89023;-37
2022/06/15 07:57:31;;;;;;;3.58;3.28;;;21.40;99.40;;;;;;4977194;28;90587;-38
2022/06/15 07:59:56;;;;;;;3.47;3.08;;;21.60;96.50;;;;;;4976583;28;90054;-37
2022/06/15 08:02:22;;;;;;;4.18;3.05;;;21.70;91.20;;;;;;4977845;28;89478;-36
2022/06/15 08:04:47;;;;;;;3.53;2.70;;;21.70;92.30;;;;;;4976819;28;89320;-35
2022/06/15 08:07:15;;;;;;;4.05;2.78;;;21.60;91.20;;;;;;4977408;28;90169;-37
2022/06/15 08:09:42;;;;;;;5.93;2.95;;;21.70;87.40;;;;;;4977280;28;89788;-38
2022/06/15 08:12:12;;;;;;;4.18;3.10;;;21.90;88.30;;;;;;4976295;28;90044;-36
2022/06/15 08:14:53;;;;;;;3.53;3.13;;;21.90;75.60;;;;;;4976579;28;88664;-37
2022/06/15 08:17:28;;;;;;;6.28;2.05;;;22.00;76.30;;;;;;4975161;28;91758;-37
2022/06/15 08:20:05;;;;;;;3.90;3.08;;;22.30;76.20;;;;;;4957224;28;89897;-38
2022/06/15 08:22:33;;;;;;;3.65;2.65;;;22.30;67.60;;;;;;4957497;28;88765;-37
2022/06/15 08:25:04;;;;;;;3.60;2.63;;;22.40;69.10;;;;;;4957714;28;89246;-35
2022/06/15 08:27:30;;;;;;;4.80;2.97;;;22.40;63.20;;;;;;4957235;28;90195;-36
2022/06/15 08:29:56;;;;;;;3.60;2.72;;;22.30;65.40;;;;;;4956446;28;89573;-39
2022/06/15 08:32:22;;;;;;;5.18;2.40;;;22.10;64.20;;;;;;4957159;28;90576;-36
2022/06/15 08:34:49;;;;;;;5.65;2.95;;;22.50;64.10;;;;;;4957076;28;89792;-35
2022/06/15 08:37:17;;;;;;;9.45;3.42;;;22.50;63.30;;;;;;4957569;28;90969;-37
2022/06/15 08:39:43;;;;;;;5.53;2.80;;;22.10;69.20;;;;;;4965376;28;89827;-39
2022/06/15 08:42:36;;;;;;;3.75;3.25;;;21.60;71.00;;;;;;4972251;28;89358;-36
2022/06/15 08:45:09;;;;;;;3.17;2.88;;;21.30;89.50;;;;;;4964835;28;89557;-40
2022/06/15 08:47:53;;;;;;;4.88;2.45;;;21.20;90.30;;;;;;4956226;28;90261;-38
2022/06/15 08:50:46;;;;;;;6.47;3.72;;;20.70;92.20;;;;;;4957425;28;88771;-37
2022/06/15 08:53:35;;;;;;;6.43;3.03;;;20.50;95.40;;;;;;4963909;28;89321;-39
2022/06/15 08:56:44;;;;;;;3.80;2.42;;;20.30;89.30;;;;;;4976601;28;89686;-36
2022/06/15 08:59:27;;;;;;;2.08;1.95;;;20.50;81.40;;;;;;4914565;28;88508;-37
2022/06/15 09:02:16;;;;;;;5.30;2.10;;;21.20;74.50;;;;;;4914047;28;89714;-38
2022/06/15 09:04:59;;;;;;;2.83;2.63;;;21.60;73.60;;;;;;4959523;28;90471;-38
2022/06/15 09:07:51;;;;;;;3.90;2.70;;;21.40;69.30;;;;;;4964867;28;87827;-36
2022/06/15 09:10:31;;;;;;;3.92;2.83;;;21.70;66.50;;;;;;4965788;28;90184;-40
2022/06/15 09:13:00;;;;;;;5.35;3.40;;;21.60;66.60;;;;;;4974889;28;90027;-35
2022/06/15 09:15:31;;;;;;;5.85;3.25;;;21.80;72.40;;;;;;4957197;28;89116;-39
2022/06/15 09:18:04;;;;;;;2.78;2.28;;;22.20;74.90;;;;;;4960795;28;87799;-40
2022/06/15 09:20:50;;;;;;;3.10;2.85;;;22.50;74.50;;;;;;4970699;28;89707;-35
2022/06/15 09:23:32;;;;;;;4.00;2.57;;;22.70;66.90;;;;;;4937932;28;90411;-38
2022/06/15 09:26:09;;;;;;;5.22;3.10;;;22.50;72.50;;;;;;4956347;28;90087;-37
2022/06/15 09:28:44;;;;;;;3.67;2.63;;;21.40;66.30;;;;;;4956808;28;87751;-39
2022/06/15 09:31:18;;;;;;;2.40;2.20;;;20.90;69.50;;;;;;4960213;28;90392;-36
2022/06/15 09:33:57;;;;;;;3.05;2.38;;;20.70;77.80;;;;;;4959923;28;89497;-40
2022/06/15 09:36:37;;;;;;;4.60;3.00;;;20.90;96.60;;;;;;4960248;28;89441;-36
2022/06/15 09:39:04;;;;;;;4.22;2.92;;;21.50;86.00;;;;;;4960326;28;89891;-38
2022/06/15 09:42:08;;;;;;;7.05;3.25;;;22.00;75.80;;;;;;4960539;28;90440;-37
2022/06/15 09:44:54;;;;;;;3.50;3.20;;;21.90;69.60;;;;;;4960372;28;89908;-37
2022/06/15 09:47:46;;;;;;;4.22;2.90;;;21.60;72.60;;;;;;4975980;28;89634;-39
2022/06/15 09:50:11;;;;;;;6.30;3.05;;;21.70;85.20;;;;;;4973754;28;88932;-37
2022/06/15 09:52:55;;;;;;;6.40;2.78;;;22.00;81.50;;;;;;4976274;28;90417;-37
2022/06/15 09:55:44;;;;;;;3.25;2.92;;;22.30;87.50;;;;;;4977662;28;89842;-38
2022/06/15 09:58:15;;;;;;;4.30;2.53;;;22.40;72.70;;;;;;4959435;28;90882;-39
2022/06/15 10:00:42;;;;;;;3.38;3.05;;;22.40;75.00;;;;;;4971640;28;89321;-37
2022/06/15 10:03:36;;;;;;;3.23;2.73;;;22.50;70.40;;;;;;4974578;28;90403;-36
2022/06/15 10:06:33;;;;;;;4.55;3.00;;;21.90;69.40;;;;;;4959299;28;89714;-38
2022/06/15 10:09:01;;;;;;;3.35;3.05;;;21.70;70.70;;;;;;4959151;28;89349;-36
2022/06/15 10:11:35;;;;;;;2.45;2.25;;;21.80;68.60;;;;;;4959418;28;90061;-37
2022/06/15 10:14:36;;;;;;;18.38;3.17;;;22.20;69.30;;;;;;4959024;28;93434;-35
2022/06/15 10:17:26;;;;;;;2.90;2.60;;;22.30;68.60;;;;;;4945878;28;90547;-36
2022/06/15 10:19:53;;;;;;;3.55;3.13;;;21.60;62.80;;;;;;4959544;28;90144;-35
2022/06/15 10:22:31;;;;;;;3.28;2.97;;;21.40;72.40;;;;;;4959389;28;89714;-37
2022/06/15 10:24:58;;;;;;;;;;;21.40;70.00;;;;;;4958921;28;90248;-36
2022/06/15 10:27:31;;;;;;;9.70;3.83;;;21.50;78.00;;;;;;4960608;28;89872;-39
2022/06/15 10:30:00;;;;;;;5.85;3.45;;;21.70;75.70;;;;;;4958700;28;90251;-37
2022/06/15 10:32:27;;;;;;;4.65;3.10;;;21.70;73.50;;;;;;4963629;28;89413;-39
2022/06/15 10:35:03;;;;;;;3.40;2.60;;;22.00;76.20;;;;;;4965279;28;90085;-38
2022/06/15 10:37:51;;;;;;;3.28;2.95;;;22.10;84.10;;;;;;4958527;28;90018;-36
2022/06/15 10:40:29;;;;;;;3.97;3.30;;;22.20;88.30;;;;;;4958151;28;89842;-38
2022/06/15 10:43:14;;;;;;;11.00;3.88;;;22.20;77.70;;;;;;4958322;28;89894;-37
2022/06/15 10:46:04;;;;;;;5.13;3.00;;;22.10;70.10;;;;;;4958744;28;90190;-38
2022/06/15 10:48:32;;;;;;;3.60;3.28;;;21.90;72.40;;;;;;4959303;28;89642;-38
2022/06/15 10:51:07;;;;;;;3.08;2.72;;;22.10;80.80;;;;;;4958893;28;88957;-37
2022/06/15 10:53:55;;;;;;;3.10;2.80;;;22.10;69.00;;;;;;4957936;28;89274;-37
2022/06/15 11:02:30;;;;;;;7.97;3.58;;;22.00;84.70;;;;;;4975254;28;89360;-35
2022/06/15 11:05:00;;;;;;;5.32;3.05;;;22.00;74.80;;;;;;4971914;28;88052;-35
2022/06/15 11:07:30;;;;;;;3.97;3.63;;;21.80;72.30;;;;;;4966742;28;90412;-36
2022/06/15 11:09:56;;;;;;;3.90;3.03;;;21.60;67.90;;;;;;4962934;28;90217;-38
2022/06/15 11:12:24;;;;;;;3.65;3.33;;;21.90;87.70;;;;;;4967578;28;91778;-38
2022/06/15 11:14:56;;;;;;;3.72;2.88;;;22.10;78.20;;;;;;4958116;28;89346;-40
2022/06/15 11:20:25;;;;;;;14.05;5.40;;;22.10;74.70;;;;;;4957785;28;89802;-36
2022/06/15 11:22:55;;;;;;;3.47;2.85;;;22.10;80.20;;;;;;4957869;28;91231;-37
2022/06/15 11:25:32;;;;;;;6.45;3.72;;;22.30;75.30;;;;;;4958678;28;89457;-39
2022/06/15 11:28:02;;;;;;;7.32;3.60;;;22.20;70.40;;;;;;4957919;28;89143;-40
2022/06/15 11:30:33;;;;;;;3.40;2.70;;;22.10;68.60;;;;;;4957901;28;89627;-39
2022/06/15 11:33:24;;;;;;;3.55;3.17;;;22.00;69.70;;;;;;4958210;28;90666;-35
2022/06/15 11:36:07;;;;;;;4.57;3.45;;;22.00;71.30;;;;;;4957692;28;89470;-37
2022/06/15 11:38:48;;;;;;;5.63;3.40;;;21.80;70.80;;;;;;4958006;28;89216;-39
2022/06/15 11:41:34;;;;;;;6.65;3.33;;;21.90;76.50;;;;;;4957957;28;90046;-36
2022/06/15 11:44:02;;;;;;;3.35;3.15;;;21.80;74.50;;;;;;4958926;28;89603;-37
2022/06/15 11:46:44;;;;;;;3.30;3.03;;;22.10;89.40;;;;;;4958300;28;89535;-37
2022/06/15 11:49:16;;;;;;;4.35;3.95;;;22.10;78.70;;;;;;4956909;28;90831;-37
2022/06/15 11:52:07;;;;;;;4.55;4.18;;;22.10;72.30;;;;;;4956828;28;89890;-36
2022/06/15 11:54:57;;;;;;;4.30;3.08;;;22.00;71.90;;;;;;4975626;28;89639;-36
2022/06/15 11:57:43;;;;;;;3.15;2.65;;;22.00;77.40;;;;;;4978425;28;89711;-36
2022/06/15 12:00:34;;;;;;;3.55;3.25;;;21.90;75.90;;;;;;4964572;28;89038;-37
2022/06/15 12:03:39;;;;;;;3.97;3.55;;;22.00;72.60;;;;;;4977184;28;91708;-36
2022/06/15 12:06:27;;;;;;;8.32;3.70;;;21.80;69.20;;;;;;4977881;28;91458;-36
2022/06/15 12:09:04;;;;;;;5.20;3.30;;;22.00;72.90;;;;;;4977249;28;88557;-36
2022/06/15 12:15:24;;;;;;;3.75;3.42;;;21.80;68.50;;;;;;4973034;28;89664;-36
2022/06/15 12:18:06;;;;;;;4.05;2.65;;;21.90;69.60;;;;;;4954516;28;89448;-38
2022/06/15 12:20:46;;;;;;;3.78;3.47;;;22.00;82.00;;;;;;4971840;28;89772;-35
2022/06/15 12:23:40;;;;;;;2.95;2.67;;;22.10;75.10;;;;;;4975734;28;90052;-39
2022/06/15 12:26:41;;;;;;;4.38;3.17;;;22.10;71.30;;;;;;4957346;28;89792;-36
2022/06/15 12:29:31;;;;;;;4.05;3.13;;;22.20;79.80;;;;;;4956881;28;89467;-37
2022/06/15 12:32:34;;;;;;;4.88;3.55;;;22.00;78.00;;;;;;4957361;28;89703;-34
2022/06/15 12:35:23;;;;;;;5.25;3.40;;;21.60;77.90;;;;;;4954193;28;89293;-37
2022/06/15 12:37:57;;;;;;;5.53;2.90;;;21.30;88.00;;;;;;4957007;28;90351;-37
2022/06/15 12:40:38;;;;;;;5.90;3.30;;;21.40;87.60;;;;;;4960446;28;89534;-37
2022/06/15 12:43:23;;;;;;;4.13;3.42;;;21.60;80.30;;;;;;4966205;28;88078;-39
2022/06/15 12:45:59;;;;;;;10.43;4.55;;;21.60;76.60;;;;;;4977625;28;90249;-36
2022/06/15 12:48:34;;;;;;;4.90;3.67;;;21.60;81.40;;;;;;4976898;28;89727;-36
2022/06/15 12:51:08;;;;;;;5.22;3.38;;;21.70;72.90;;;;;;4974989;28;88858;-37
2022/06/15 12:53:53;;;;;;;6.63;3.22;;;21.60;85.70;;;;;;4967618;28;90274;-39
2022/06/15 12:56:51;;;;;;;4.53;4.03;;;21.70;87.90;;;;;;4976630;28;90309;-39
2022/06/15 13:02:54;;;;;;;5.13;3.88;;;22.10;81.70;;;;;;4877744;28;89758;-35
2022/06/15 13:05:25;;;;;;;3.30;3.00;;;22.00;72.30;;;;;;4883130;28;88526;-36
2022/06/15 13:08:12;;;;;;;4.43;3.33;;;22.00;71.40;;;;;;4882018;28;90406;-38
2022/06/15 13:11:12;;;;;;;4.47;3.60;;;21.80;74.60;;;;;;4883448;28;89540;-39
2022/06/15 13:13:48;;;;;;;3.63;3.33;;;21.70;69.80;;;;;;4872134;28;91142;-35
2022/06/15 13:16:35;;;;;;;3.50;3.20;;;21.70;72.80;;;;;;4882521;28;89164;-38
2022/06/15 13:19:03;;;;;;;6.75;3.63;;;21.70;67.30;;;;;;4873084;28;90279;-36
2022/06/15 13:21:52;;;;;;;3.13;2.92;;;21.70;69.70;;;;;;4882399;28;89387;-37
2022/06/15 13:24:19;;;;;;;3.38;3.08;;;21.80;74.30;;;;;;4882348;28;90288;-36
2022/06/15 13:26:54;;;;;;;5.07;3.42;;;21.90;76.30;;;;;;4882115;28;89898;-36
2022/06/15 13:29:25;;;;;;;7.53;3.90;;;21.70;75.00;;;;;;4883082;28;89108;-39
2022/06/15 13:31:59;;;;;;;5.88;3.30;;;21.80;77.10;;;;;;4881784;28;89577;-39
2022/06/15 13:34:34;;;;;;;3.42;3.00;;;21.80;82.90;;;;;;4882149;28;90209;-37
2022/06/15 13:37:14;;;;;;;4.55;3.67;;;22.10;82.40;;;;;;4865415;28;89598;-38